createdAt,value
2022-10-23T00:19:07.515Z,100
2022-10-23T01:19:07.410Z,100
2022-10-23T01:39:07.381Z,100
2022-10-23T01:59:07.335Z,100
2022-10-23T02:19:07.312Z,100
2022-10-23T02:39:07.275Z,100
2022-10-23T02:59:07.243Z,100
2022-10-23T03:19:07.236Z,100
2022-10-23T03:39:07.188Z,100
2022-10-23T03:59:07.144Z,100
2022-10-23T04:19:07.113Z,100
2022-10-23T04:39:07.087Z,100
2022-10-23T04:59:07.078Z,100
2022-10-23T05:19:07.029Z,100
2022-10-23T05:39:06.996Z,100
2022-10-23T05:59:06.958Z,100
2022-10-23T06:19:06.928Z,100
2022-10-23T06:39:06.943Z,100
2022-10-23T06:59:06.862Z,100
2022-10-23T07:19:06.892Z,100
2022-10-23T07:39:06.822Z,100
2022-10-23T07:59:06.755Z,100
2022-10-23T08:19:06.729Z,100
2022-10-23T08:59:06.656Z,100
2022-10-23T09:19:09.953Z,100
2022-10-23T09:39:06.582Z,100
2022-10-23T10:19:06.499Z,87.5
2022-10-23T10:59:06.414Z,86.1
2022-10-23T11:19:09.829Z,86.5
2022-10-23T11:39:06.335Z,85.8
2022-10-23T11:59:06.295Z,81.5
2022-10-23T12:19:06.255Z,79.6
2022-10-23T12:39:06.222Z,77.6
2022-10-23T12:59:06.175Z,70
2022-10-23T13:19:06.152Z,67.1
2022-10-23T14:39:05.977Z,65.4
2022-10-23T14:59:05.926Z,65.6
2022-10-23T15:19:05.894Z,66.8
2022-10-23T15:39:05.845Z,68.4
2022-10-23T15:59:05.805Z,75
2022-10-23T16:19:05.778Z,78.8
2022-10-23T16:39:05.764Z,82.8
2022-10-23T16:59:05.688Z,85.8
2022-10-23T17:19:11.774Z,87.6
2022-10-23T17:39:05.610Z,89.8
2022-10-23T17:59:05.580Z,90.7
2022-10-23T18:19:05.546Z,91.4
2022-10-23T18:39:05.493Z,90.4
2022-10-23T18:59:05.454Z,90.3
2022-10-23T19:19:05.417Z,89.4
2022-10-23T19:39:05.374Z,89.5
2022-10-23T19:59:05.329Z,89.6
2022-10-23T20:19:05.349Z,88.2
2022-10-23T20:39:05.251Z,84.3
2022-10-23T20:59:05.213Z,82.2
2022-10-23T21:19:05.182Z,82
2022-10-23T21:39:05.130Z,85.5
2022-10-23T21:59:07.692Z,86.9
2022-10-23T22:39:05.018Z,88.6
2022-10-23T22:59:04.983Z,87.7
2022-10-23T23:19:04.948Z,87
2022-10-23T23:59:04.899Z,85.2
